Latest Coastal Weather Observations for Willis Island

IDQ60701

Issued at 5:31 am EST Thursday 17 August 2017 (issued every 10 minutes, with the page automatically refreshed every 10 minutes)

About coastal observations | Map of coastal stations | Coastal observations for QLD | Marine services | Other Formats
Station Details ID: 200283 Name: WILLIS ISLAND Lat: -16.29 Lon: 149.97 Height: 9.29 m
Data from the previous 72 hours. | See also: Recent months at Willis Island
Date/Time
EST
Temp
°C
Wind Pressure Rain since
9am
mm
Weather Cloud Vis
km
Sea
Height
m
Swell
Dir  Spd
kts
Gust
kts
hPa Trend Height
m
Period
s
Dir
17/05:30am 23.6 ESE 19 22 1014.1 - 0.0 - - - - - - -
17/05:00am 23.7 E 17 20 1013.9 - 0.0 - - - - - - -
17/04:30am 23.7 ESE 16 17 1013.7 - 0.0 - - - - - - -
17/04:00am 23.6 E 17 20 1013.5 - 0.0 - - - - - - -
17/03:30am 23.6 ESE 18 20 1013.6 - 0.0 - - - - - - -
17/03:00am 23.7 ESE 15 18 1013.7 R 0.0 - - - - - - -
17/02:30am 23.7 ESE 16 19 1013.8 - 0.0 - - - - - - -
17/02:00am 23.7 ESE 15 18 1013.9 - 0.0 - - - - - - -
17/01:30am 23.6 ESE 17 19 1014.0 - 0.0 - - - - - - -
17/01:00am 23.6 ESE 17 20 1014.2 - 0.0 - - - - - - -
17/12:30am 23.7 ESE 16 18 1014.4 - 0.0 - - - - - - -
17/12:00am 23.7 ESE 17 19 1014.6 R 0.0 - - - - - - -
 
Date/Time
EST
Temp
°C
Wind Pressure Rain since
9am
mm
Weather Cloud Vis
km
Sea
Height
m
Swell
Dir  Spd
kts
Gust
kts
hPa Trend Height
m
Period
s
Dir
16/11:30pm 23.9 ESE 19 22 1014.7 - 0.0 - - - - - - -
16/11:00pm 23.9 ESE 17 19 1014.7 - 0.0 - - - - - - -
16/10:30pm 23.9 ESE 16 19 1014.7 - 0.0 - - - - - - -
16/10:00pm 23.9 ESE 14 17 1014.7 - 0.0 - - - - - - -
16/09:30pm 23.7 ESE 14 16 1014.7 - 0.0 - - - - - - -
16/09:00pm 24.0 ESE 15 17 1014.7 R 0.0 - - - - - - -
16/08:30pm 24.0 ESE 16 18 1014.5 - 0.0 - - - - - - -
16/08:00pm 23.8 ESE 15 18 1014.3 - 0.0 - - - - - - -
16/07:30pm 23.8 ESE 14 17 1014.0 - 0.0 - - - - - - -
16/07:00pm 24.0 ESE 16 18 1013.7 - 0.0 - - - - - - -
16/06:30pm 24.0 ESE 16 19 1013.3 - 0.0 - - - - - - -
16/06:00pm 24.1 ESE 17 20 1013.1 F 0.0 Fine Partly cloudy 20 2 1.4 8 E
16/05:30pm 24.4 E 13 15 1012.9 - 0.0 - - - - - - -
16/05:00pm 24.8 ESE 14 16 1012.8 - 0.0 - - - - - - -
16/04:30pm 24.6 E 14 16 1012.5 - 0.0 - - - - - - -
16/04:00pm 24.9 ESE 13 15 1012.5 - 0.0 - - - - - - -
16/03:30pm 26.4 E 13 16 1012.6 - 0.0 - - - - - - -
16/03:00pm 25.1 E 15 18 1012.5 F 0.0 Fine Partly cloudy 25 2 1.6 8 E
16/02:30pm 26.4 E 14 17 1012.5 - 0.0 - - - - - - -
16/02:00pm 26.3 E 14 19 1012.8 - 0.0 - - - - - - -
16/01:30pm 26.2 E 14 18 1013.1 - 0.0 - - - - - - -
16/01:00pm 26.6 E 15 17 1013.4 - 0.0 - - - - - - -
16/12:30pm 26.6 E 15 16 1013.8 - 0.0 - - - - - - -
16/12:00pm 26.6 E 16 19 1014.3 F 0.0 Fine Partly cloudy 25 2 1.6 8 E
16/11:30am 25.9 E 17 20 1014.7 - 0.0 - - - - - - -
16/11:00am 25.7 E 19 21 1014.9 - 0.0 - - - - - - -
16/10:30am 25.7 E 15 19 1015.3 - 0.0 - - - - - - -
16/10:00am 26.0 E 16 18 1015.7 - 0.0 - - - - - - -
16/09:30am 25.6 E 17 20 1015.9 - 0.0 - - - - - - -
16/09:00am 25.5 E 17 20 1015.8 S 0.0 Fine Mostly clear 25 2 1.6 9 E
16/08:30am 24.6 E 17 19 1015.6 - - - - - - - - -
16/08:00am 24.1 ESE 17 21 1015.5 - - - - - - - - -
16/07:30am 24.0 ESE 17 19 1015.3 - - - - - - - - -
16/07:00am 23.9 E 16 19 1015.1 - - - - - - - - -
16/06:30am 23.7 E 18 22 1014.7 - - - - - - - - -
16/06:00am 23.5 E 19 22 1014.2 R - - - - - - - -
16/05:30am 23.4 E 18 21 1013.9 - - - - - - - - -
16/05:00am 23.5 E 18 21 1013.5 - - - - - - - - -
16/04:30am 23.4 E 18 24 1013.3 - - - - - - - - -
16/04:00am 23.3 E 19 23 1013.2 - - - - - - - - -
16/03:30am 23.2 ESE 20 23 1013.3 - - - - - - - - -
16/03:00am 23.2 ESE 21 24 1013.5 F 0.0 - - - - - - -
16/02:30am 23.2 ESE 21 24 1013.5 - - - - - - - - -
16/02:00am 23.4 ESE 20 24 1013.6 - - - - - - - - -
16/01:30am 23.3 ESE 21 25 1014.0 - - - - - - - - -
16/01:00am 23.2 ESE 21 25 1014.2 - - - - - - - - -
16/12:30am 23.4 ESE 21 24 1014.6 - - - - - - - - -
16/12:00am 23.3 ESE 20 24 1014.9 F - - - - - - - -
 
Date/Time
EST
Temp
°C
Wind Pressure Rain since
9am
mm
Weather Cloud Vis
km
Sea
Height
m
Swell
Dir  Spd
kts
Gust
kts
hPa Trend Height
m
Period
s
Dir
15/11:30pm 23.3 ESE 19 22 1015.0 - - - - - - - - -
15/11:00pm 23.4 ESE 20 23 1015.0 - - - - - - - - -
15/10:30pm 23.3 ESE 19 22 1015.4 - - - - - - - - -
15/10:00pm 23.2 ESE 19 22 1015.6 - - - - - - - - -
15/09:30pm 23.5 ESE 19 22 1015.8 - - - - - - - - -
15/09:00pm 23.5 ESE 19 23 1015.8 F 0.0 - - - - - - -
15/08:30pm 23.6 E 18 20 1015.7 - - - - - - - - -
15/08:00pm 23.4 E 17 21 1015.4 - - - - - - - - -
15/07:30pm 23.4 E 17 21 1015.3 - - - - - - - - -
15/07:00pm 23.5 E 17 20 1015.0 - - - - - - - - -
15/06:30pm 23.4 ESE 17 20 1014.9 - - - - - - - - -
15/06:00pm 23.6 E 17 20 1014.9 F - Fine Mostly clear 20 2 1.6 9 E
15/05:30pm 23.7 ESE 17 20 1014.8 - - - - - - - - -
15/05:00pm 24.1 ESE 18 21 1014.5 - - - - - - - - -
15/04:30pm 24.4 ESE 18 21 1014.3 - - - - - - - - -
15/04:00pm 24.7 ESE 17 19 1014.2 - - - - - - - - -
15/03:30pm 25.3 ESE 17 20 1014.1 - - - - - - - - -
15/03:00pm 25.2 ESE 18 21 1014.2 S 0.0 Fine Mostly clear 25 2 1.8 9 E
15/02:30pm 25.7 ESE 18 21 1014.3 - - - - - - - - -
15/02:00pm 25.7 ESE 19 22 1014.5 - 0.0 - - - - - - -
15/01:30pm 26.0 ESE 19 23 1015.0 - 0.0 - - - - - - -
15/01:00pm 26.0 ESE 19 23 1015.3 - 0.0 - - - - - - -
15/12:30pm 25.8 ESE 20 23 1015.6 - 0.0 - - - - - - -
15/12:00pm 26.8 ESE 19 23 1015.9 F 0.0 Fine Mostly clear 25 2 1.6 9 E
15/11:30am 26.0 ESE 19 22 1016.2 - 0.0 - - - - - - -
15/11:00am 26.0 ESE 19 21 1016.5 - 0.0 - - - - - - -
15/10:30am 25.8 ESE 18 22 1017.0 - 0.0 - - - - - - -
15/10:00am 25.7 ESE 17 20 1017.5 - 0.0 - - - - - - -
15/09:30am 25.3 ESE 18 21 1017.5 - 0.0 - - - - - - -
15/09:00am 25.3 ESE 17 20 1017.5 F 0.0 Fine Mostly clear 25 2 1.6 9 E
15/08:30am 24.9 ESE 17 20 1017.4 - 0.0 - - - - - - -
15/08:00am 24.7 ESE 19 22 1017.1 - 0.0 - - - - - - -
15/07:30am 24.2 ESE 20 22 1016.8 - 0.0 - - - - - - -
15/07:00am 23.8 ESE 19 22 1016.6 - 0.0 - - - - - - -
15/06:30am 23.5 ESE 17 20 1016.4 - 0.0 - - - - - - -
15/06:00am 23.4 ESE 17 20 1016.0 F 0.0 - - - - - - -
15/05:30am 23.3 E 17 20 1015.7 - 0.0 - - - - - - -
15/05:00am 23.4 ESE 18 21 1015.6 - 0.0 - - - - - - -
15/04:30am 23.4 ESE 18 21 1015.5 - 0.0 - - - - - - -
15/04:00am 23.4 ESE 17 19 1015.4 - 0.0 - - - - - - -
15/03:30am 23.3 ESE 17 20 1015.5 - 0.0 - - - - - - -
15/03:00am 23.2 ESE 17 19 1015.5 S 0.0 - - - - - - -
15/02:30am 23.3 ESE 16 19 1015.7 - 0.0 - - - - - - -
15/02:00am 23.4 ESE 16 18 1016.0 - 0.0 - - - - - - -
15/01:30am 23.3 ESE 16 19 1016.3 - 0.0 - - - - - - -
15/01:00am 23.3 ESE 16 18 1016.4 - 0.0 - - - - - - -
15/12:30am 23.6 ESE 16 17 1016.6 - 0.0 - - - - - - -
15/12:00am 23.7 ESE 16 18 1016.8 R 0.0 - - - - - - -
 
Date/Time
EST
Temp
°C
Wind Pressure Rain since
9am
mm
Weather Cloud Vis
km
Sea
Height
m
Swell
Dir  Spd
kts
Gust
kts
hPa Trend Height
m
Period
s
Dir
14/11:30pm 23.6 ESE 16 17 1017.0 - 0.0 - - - - - - -
14/11:00pm 23.6 ESE 15 17 1017.1 - 0.0 - - - - - - -
14/10:30pm 23.6 ESE 16 18 1017.0 - 0.0 - - - - - - -
14/10:00pm 23.6 ESE 15 17 1017.0 - 0.0 - - - - - - -
14/09:30pm 23.6 ESE 16 18 1017.0 - 0.0 - - - - - - -
14/09:00pm 23.6 SE 15 17 1016.9 F 0.0 - - - - - - -
14/08:30pm 23.7 ESE 15 18 1016.9 - 0.0 - - - - - - -
14/08:00pm 23.7 ESE 16 18 1016.9 - 0.0 - - - - - - -
14/07:30pm 23.7 SE 16 18 1016.6 - 0.0 - - - - - - -
14/07:00pm 23.8 SE 16 18 1016.3 - 0.0 - - - - - - -
14/06:30pm 23.9 SE 16 18 1016.0 - 0.0 - - - - - - -
14/06:00pm 24.1 SE 16 18 1015.8 R 0.0 Distant precip. Mostly cloudy 20 2 1.9 7 E
14/05:30pm 24.2 SE 16 19 1015.6 - 0.0 - - - - - - -
14/05:00pm 24.4 SE 15 17 1015.4 - 0.0 - - - - - - -
14/04:30pm 24.8 SE 14 17 1015.0 - 0.0 - - - - - - -
14/04:00pm 25.6 SE 13 17 1014.8 - 0.0 - - - - - - -
14/03:30pm 25.6 SE 14 16 1014.5 - 0.0 - - - - - - -
14/03:00pm 25.6 ESE 14 16 1014.4 F 0.0 Fine Partly cloudy 25 2 2.0 7 E
14/02:30pm 26.0 ESE 14 16 1014.7 - 0.0 - - - - - - -
14/02:00pm 26.3 ESE 15 17 1014.9 - 0.0 - - - - - - -
14/01:30pm 26.5 ESE 15 18 1015.3 - 0.0 - - - - - - -
14/01:00pm 26.3 ESE 17 19 1015.8 - 0.0 - - - - - - -
14/12:30pm 26.4 SE 17 19 1016.2 - 0.0 - - - - - - -
14/12:00pm 26.1 SE 16 19 1016.5 F 0.0 Fine Mostly clear 25 2 1.8 8 E
14/11:30am 26.5 ESE 17 19 1016.9 - 0.0 - - - - - - -
14/11:00am 26.2 SE 16 19 1017.4 - 0.0 - - - - - - -
14/10:30am 26.0 ESE 17 20 1017.6 - 0.0 - - - - - - -
14/10:00am 25.5 ESE 17 20 1017.8 - 0.0 - - - - - - -
14/09:30am 25.3 ESE 17 19 1018.0 - 0.0 - - - - - - -
14/09:00am 25.0 ESE 18 20 1018.1 F 0.0 Fine Mostly cloudy 25 2 1.9 7 E
14/08:30am 24.5 ESE 18 20 1018.0 - 0.0 - - - - - - -
14/08:00am 24.2 ESE 17 20 1017.8 - 0.0 - - - - - - -
14/07:30am 24.0 SE 18 20 1017.7 - 0.0 - - - - - - -
14/07:00am 23.6 SE 17 21 1017.4 - 0.0 - - - - - - -
14/06:30am 23.6 ESE 19 21 1016.9 - 0.0 - - - - - - -
14/06:00am 23.8 SE 18 22 1016.6 F 0.0 - - - - - - -

Other Formats:

Comma delimited format used in spreadsheet applications
http://www.bom.gov.au/fwo/IDQ60701/IDQ60701.94299.axf

JavaScript Object Notation format (JSON) in row-major order
http://www.bom.gov.au/fwo/IDQ60701/IDQ60701.94299.json